sensor_id;sensor_type;location;lat;lon;timestamp;temperature;humidity
45409;DHT22;31162;51.076;3.784;2022-12-07T00:01:36;5.90;99.90
45409;DHT22;31162;51.076;3.784;2022-12-07T00:04:04;5.90;99.90
45409;DHT22;31162;51.076;3.784;2022-12-07T00:06:32;5.90;99.90
45409;DHT22;31162;51.076;3.784;2022-12-07T00:08:58;5.80;99.90
45409;DHT22;31162;51.076;3.784;2022-12-07T00:11:24;5.70;99.90
45409;DHT22;31162;51.076;3.784;2022-12-07T00:13:55;5.60;99.90
45409;DHT22;31162;51.076;3.784;2022-12-07T00:16:23;5.50;99.90
45409;DHT22;31162;51.076;3.784;2022-12-07T00:18:49;5.50;99.90
45409;DHT22;31162;51.076;3.784;2022-12-07T00:21:20;5.40;99.90
45409;DHT22;31162;51.076;3.784;2022-12-07T00:23:48;5.30;99.90
45409;DHT22;31162;51.076;3.784;2022-12-07T00:26:15;5.30;99.90
45409;DHT22;31162;51.076;3.784;2022-12-07T00:28:44;5.30;99.90
45409;DHT22;31162;51.076;3.784;2022-12-07T00:31:11;5.40;99.90
45409;DHT22;31162;51.076;3.784;2022-12-07T00:33:37;5.50;99.90
45409;DHT22;31162;51.076;3.784;2022-12-07T00:36:07;5.60;99.90
45409;DHT22;31162;51.076;3.784;2022-12-07T00:38:34;5.60;99.90
45409;DHT22;31162;51.076;3.784;2022-12-07T00:41:03;5.70;99.90
45409;DHT22;31162;51.076;3.784;2022-12-07T00:43:29;5.70;99.90
45409;DHT22;31162;51.076;3.784;2022-12-07T00:45:56;5.70;99.90
45409;DHT22;31162;51.076;3.784;2022-12-07T00:48:22;5.60;99.90
45409;DHT22;31162;51.076;3.784;2022-12-07T00:50:48;5.60;99.90
45409;DHT22;31162;51.076;3.784;2022-12-07T00:53:15;5.60;99.90
45409;DHT22;31162;51.076;3.784;2022-12-07T00:55:40;5.50;99.90
45409;DHT22;31162;51.076;3.784;2022-12-07T00:58:07;5.50;99.90
45409;DHT22;31162;51.076;3.784;2022-12-07T01:00:33;5.50;99.90
45409;DHT22;31162;51.076;3.784;2022-12-07T01:03:00;5.60;99.90
45409;DHT22;31162;51.076;3.784;2022-12-07T01:05:27;5.70;99.90
45409;DHT22;31162;51.076;3.784;2022-12-07T01:07:52;5.60;99.90
45409;DHT22;31162;51.076;3.784;2022-12-07T01:10:18;5.60;99.90
45409;DHT22;31162;51.076;3.784;2022-12-07T01:12:44;5.50;99.90
45409;DHT22;31162;51.076;3.784;2022-12-07T01:15:10;5.50;99.90
45409;DHT22;31162;51.076;3.784;2022-12-07T01:17:35;5.30;99.90
45409;DHT22;31162;51.076;3.784;2022-12-07T01:20:02;5.30;99.90
45409;DHT22;31162;51.076;3.784;2022-12-07T01:22:28;5.30;99.90
45409;DHT22;31162;51.076;3.784;2022-12-07T01:24:54;5.30;99.90
45409;DHT22;31162;51.076;3.784;2022-12-07T01:27:19;5.20;99.90
45409;DHT22;31162;51.076;3.784;2022-12-07T01:29:45;5.30;99.90
45409;DHT22;31162;51.076;3.784;2022-12-07T01:32:11;5.20;99.90
45409;DHT22;31162;51.076;3.784;2022-12-07T01:34:37;5.20;99.90
45409;DHT22;31162;51.076;3.784;2022-12-07T01:37:03;5.20;99.90
45409;DHT22;31162;51.076;3.784;2022-12-07T01:39:28;5.20;99.90
45409;DHT22;31162;51.076;3.784;2022-12-07T01:41:54;5.40;99.90
45409;DHT22;31162;51.076;3.784;2022-12-07T01:44:21;5.60;99.90
45409;DHT22;31162;51.076;3.784;2022-12-07T01:51:58;5.60;99.90
45409;DHT22;31162;51.076;3.784;2022-12-07T01:54:26;5.60;99.90
45409;DHT22;31162;51.076;3.784;2022-12-07T01:56:54;5.70;99.90
45409;DHT22;31162;51.076;3.784;2022-12-07T01:59:23;5.70;99.90
45409;DHT22;31162;51.076;3.784;2022-12-07T02:01:50;5.60;99.90
45409;DHT22;31162;51.076;3.784;2022-12-07T02:04:16;5.50;99.90
45409;DHT22;31162;51.076;3.784;2022-12-07T02:06:44;5.40;99.90
45409;DHT22;31162;51.076;3.784;2022-12-07T02:09:10;5.40;99.90
45409;DHT22;31162;51.076;3.784;2022-12-07T02:11:38;5.30;99.90
45409;DHT22;31162;51.076;3.784;2022-12-07T02:14:05;5.30;99.90
45409;DHT22;31162;51.076;3.784;2022-12-07T02:30:13;5.20;99.90
45409;DHT22;31162;51.076;3.784;2022-12-07T02:38:18;5.00;99.90
45409;DHT22;31162;51.076;3.784;2022-12-07T02:41:12;5.10;99.90
45409;DHT22;31162;51.076;3.784;2022-12-07T02:43:52;5.20;99.90
45409;DHT22;31162;51.076;3.784;2022-12-07T02:46:31;5.30;99.90
45409;DHT22;31162;51.076;3.784;2022-12-07T02:48:58;5.50;99.90
45409;DHT22;31162;51.076;3.784;2022-12-07T02:51:30;5.50;99.90
45409;DHT22;31162;51.076;3.784;2022-12-07T02:53:56;5.50;99.90
45409;DHT22;31162;51.076;3.784;2022-12-07T02:56:39;5.60;99.90
45409;DHT22;31162;51.076;3.784;2022-12-07T03:02:18;5.60;99.90
45409;DHT22;31162;51.076;3.784;2022-12-07T03:12:37;5.60;99.90
45409;DHT22;31162;51.076;3.784;2022-12-07T03:15:18;5.60;99.90
45409;DHT22;31162;51.076;3.784;2022-12-07T03:17:46;5.40;99.90
45409;DHT22;31162;51.076;3.784;2022-12-07T03:20:17;5.30;99.90
45409;DHT22;31162;51.076;3.784;2022-12-07T03:22:45;5.10;99.90
45409;DHT22;31162;51.076;3.784;2022-12-07T03:25:14;5.10;99.90
45409;DHT22;31162;51.076;3.784;2022-12-07T03:28:00;5.10;99.90
45409;DHT22;31162;51.076;3.784;2022-12-07T03:30:48;5.00;99.90
45409;DHT22;31162;51.076;3.784;2022-12-07T03:33:22;4.90;99.90
45409;DHT22;31162;51.076;3.784;2022-12-07T03:36:05;4.90;99.90
45409;DHT22;31162;51.076;3.784;2022-12-07T03:38:42;4.70;99.90
45409;DHT22;31162;51.076;3.784;2022-12-07T03:41:26;4.60;99.90
45409;DHT22;31162;51.076;3.784;2022-12-07T03:43:55;4.50;99.90
45409;DHT22;31162;51.076;3.784;2022-12-07T03:46:38;4.50;99.90
45409;DHT22;31162;51.076;3.784;2022-12-07T03:49:32;4.40;99.90
45409;DHT22;31162;51.076;3.784;2022-12-07T03:52:21;4.30;99.90
45409;DHT22;31162;51.076;3.784;2022-12-07T03:54:57;4.20;99.90
45409;DHT22;31162;51.076;3.784;2022-12-07T03:57:26;4.10;99.90
45409;DHT22;31162;51.076;3.784;2022-12-07T03:59:54;4.10;99.90
45409;DHT22;31162;51.076;3.784;2022-12-07T04:02:21;4.10;99.90
45409;DHT22;31162;51.076;3.784;2022-12-07T04:04:47;4.00;99.90
45409;DHT22;31162;51.076;3.784;2022-12-07T04:07:13;4.00;99.90
45409;DHT22;31162;51.076;3.784;2022-12-07T04:09:39;4.00;99.90
45409;DHT22;31162;51.076;3.784;2022-12-07T04:12:04;4.00;99.90
45409;DHT22;31162;51.076;3.784;2022-12-07T04:14:30;4.00;99.90
45409;DHT22;31162;51.076;3.784;2022-12-07T04:16:57;4.10;99.90
45409;DHT22;31162;51.076;3.784;2022-12-07T04:19:26;4.00;99.90
45409;DHT22;31162;51.076;3.784;2022-12-07T04:21:52;4.00;99.90
45409;DHT22;31162;51.076;3.784;2022-12-07T04:24:18;4.00;99.90
45409;DHT22;31162;51.076;3.784;2022-12-07T04:26:44;3.90;99.90
45409;DHT22;31162;51.076;3.784;2022-12-07T04:29:10;3.90;99.90
45409;DHT22;31162;51.076;3.784;2022-12-07T04:31:37;3.80;99.90
45409;DHT22;31162;51.076;3.784;2022-12-07T04:34:03;3.80;99.90
45409;DHT22;31162;51.076;3.784;2022-12-07T04:36:30;3.70;99.90
45409;DHT22;31162;51.076;3.784;2022-12-07T04:38:56;3.70;99.90
45409;DHT22;31162;51.076;3.784;2022-12-07T04:41:23;3.70;99.90
45409;DHT22;31162;51.076;3.784;2022-12-07T04:44:03;3.70;99.90
45409;DHT22;31162;51.076;3.784;2022-12-07T04:46:31;3.70;99.90
45409;DHT22;31162;51.076;3.784;2022-12-07T04:48:57;3.70;99.90
45409;DHT22;31162;51.076;3.784;2022-12-07T04:51:25;3.80;99.90
45409;DHT22;31162;51.076;3.784;2022-12-07T04:53:51;3.90;99.90
45409;DHT22;31162;51.076;3.784;2022-12-07T04:56:17;4.10;99.90
45409;DHT22;31162;51.076;3.784;2022-12-07T04:58:44;4.20;99.90
45409;DHT22;31162;51.076;3.784;2022-12-07T05:01:11;4.40;99.90
45409;DHT22;31162;51.076;3.784;2022-12-07T05:03:39;4.60;99.90
45409;DHT22;31162;51.076;3.784;2022-12-07T05:06:05;4.80;99.90
45409;DHT22;31162;51.076;3.784;2022-12-07T05:08:32;4.80;99.90
45409;DHT22;31162;51.076;3.784;2022-12-07T05:10:59;4.90;99.90
45409;DHT22;31162;51.076;3.784;2022-12-07T05:13:24;5.00;99.90
45409;DHT22;31162;51.076;3.784;2022-12-07T05:15:50;5.00;99.90
45409;DHT22;31162;51.076;3.784;2022-12-07T05:18:16;5.10;99.90
45409;DHT22;31162;51.076;3.784;2022-12-07T05:20:42;5.30;99.90
45409;DHT22;31162;51.076;3.784;2022-12-07T05:23:08;5.20;99.90
45409;DHT22;31162;51.076;3.784;2022-12-07T05:25:34;5.20;99.90
45409;DHT22;31162;51.076;3.784;2022-12-07T05:27:59;5.10;99.90
45409;DHT22;31162;51.076;3.784;2022-12-07T05:30:26;5.10;99.90
45409;DHT22;31162;51.076;3.784;2022-12-07T05:32:51;5.00;99.90
45409;DHT22;31162;51.076;3.784;2022-12-07T05:35:18;5.00;99.90
45409;DHT22;31162;51.076;3.784;2022-12-07T05:37:44;5.20;99.90
45409;DHT22;31162;51.076;3.784;2022-12-07T05:40:11;5.10;99.90
45409;DHT22;31162;51.076;3.784;2022-12-07T05:42:37;5.10;99.90
45409;DHT22;31162;51.076;3.784;2022-12-07T05:45:03;4.90;99.90
45409;DHT22;31162;51.076;3.784;2022-12-07T05:47:29;4.80;99.90
45409;DHT22;31162;51.076;3.784;2022-12-07T05:49:54;4.80;99.90
45409;DHT22;31162;51.076;3.784;2022-12-07T05:52:20;4.70;99.90
45409;DHT22;31162;51.076;3.784;2022-12-07T05:54:46;4.60;99.90
45409;DHT22;31162;51.076;3.784;2022-12-07T05:57:12;4.70;99.90
45409;DHT22;31162;51.076;3.784;2022-12-07T05:59:37;4.70;99.90
45409;DHT22;31162;51.076;3.784;2022-12-07T06:02:09;4.80;99.90
45409;DHT22;31162;51.076;3.784;2022-12-07T06:04:37;4.80;99.90
45409;DHT22;31162;51.076;3.784;2022-12-07T06:07:04;5.00;99.90
45409;DHT22;31162;51.076;3.784;2022-12-07T06:09:29;5.10;99.90
45409;DHT22;31162;51.076;3.784;2022-12-07T06:11:56;5.10;99.90
45409;DHT22;31162;51.076;3.784;2022-12-07T06:14:40;5.10;99.90
45409;DHT22;31162;51.076;3.784;2022-12-07T06:17:06;5.20;99.90
45409;DHT22;31162;51.076;3.784;2022-12-07T06:19:32;5.20;99.90
45409;DHT22;31162;51.076;3.784;2022-12-07T06:21:58;5.10;99.90
45409;DHT22;31162;51.076;3.784;2022-12-07T06:24:23;5.00;99.90
45409;DHT22;31162;51.076;3.784;2022-12-07T06:26:50;5.00;99.90
45409;DHT22;31162;51.076;3.784;2022-12-07T06:29:16;5.00;99.90
45409;DHT22;31162;51.076;3.784;2022-12-07T06:31:42;5.00;99.90
45409;DHT22;31162;51.076;3.784;2022-12-07T06:34:14;5.00;99.90
45409;DHT22;31162;51.076;3.784;2022-12-07T06:36:40;4.90;99.90
45409;DHT22;31162;51.076;3.784;2022-12-07T06:39:06;4.80;99.90
45409;DHT22;31162;51.076;3.784;2022-12-07T06:41:37;4.70;99.90
45409;DHT22;31162;51.076;3.784;2022-12-07T06:44:04;4.70;99.90
45409;DHT22;31162;51.076;3.784;2022-12-07T06:46:30;4.80;99.90
45409;DHT22;31162;51.076;3.784;2022-12-07T06:48:56;4.80;99.90
45409;DHT22;31162;51.076;3.784;2022-12-07T06:51:22;4.80;99.90
45409;DHT22;31162;51.076;3.784;2022-12-07T06:53:47;5.00;99.90
45409;DHT22;31162;51.076;3.784;2022-12-07T06:56:13;5.00;99.90
45409;DHT22;31162;51.076;3.784;2022-12-07T06:58:39;5.10;99.90
45409;DHT22;31162;51.076;3.784;2022-12-07T07:01:13;5.20;99.90
45409;DHT22;31162;51.076;3.784;2022-12-07T07:03:39;5.30;99.90
45409;DHT22;31162;51.076;3.784;2022-12-07T07:06:05;5.30;99.90
45409;DHT22;31162;51.076;3.784;2022-12-07T07:08:31;5.30;99.90
45409;DHT22;31162;51.076;3.784;2022-12-07T07:10:57;5.50;99.90
45409;DHT22;31162;51.076;3.784;2022-12-07T07:13:22;5.40;99.90
45409;DHT22;31162;51.076;3.784;2022-12-07T07:15:48;5.30;99.90
45409;DHT22;31162;51.076;3.784;2022-12-07T07:18:14;5.10;99.90
45409;DHT22;31162;51.076;3.784;2022-12-07T07:20:40;5.00;99.90
45409;DHT22;31162;51.076;3.784;2022-12-07T07:23:05;4.90;99.90
45409;DHT22;31162;51.076;3.784;2022-12-07T07:25:31;5.00;99.90
45409;DHT22;31162;51.076;3.784;2022-12-07T07:27:57;5.00;99.90
45409;DHT22;31162;51.076;3.784;2022-12-07T07:30:23;5.10;99.90
45409;DHT22;31162;51.076;3.784;2022-12-07T07:32:49;5.10;99.90
45409;DHT22;31162;51.076;3.784;2022-12-07T07:35:15;5.20;99.90
45409;DHT22;31162;51.076;3.784;2022-12-07T07:37:41;5.40;99.90
45409;DHT22;31162;51.076;3.784;2022-12-07T07:40:08;5.30;99.90
45409;DHT22;31162;51.076;3.784;2022-12-07T07:42:33;5.40;99.90
45409;DHT22;31162;51.076;3.784;2022-12-07T07:44:59;5.40;99.90
45409;DHT22;31162;51.076;3.784;2022-12-07T07:47:25;5.50;99.90
45409;DHT22;31162;51.076;3.784;2022-12-07T07:49:50;5.40;99.90
45409;DHT22;31162;51.076;3.784;2022-12-07T07:52:16;5.40;99.90
45409;DHT22;31162;51.076;3.784;2022-12-07T07:54:42;5.30;99.90
45409;DHT22;31162;51.076;3.784;2022-12-07T07:57:07;5.20;99.90
45409;DHT22;31162;51.076;3.784;2022-12-07T07:59:33;5.10;99.90
45409;DHT22;31162;51.076;3.784;2022-12-07T08:01:58;5.10;99.90
45409;DHT22;31162;51.076;3.784;2022-12-07T08:04:24;5.00;99.90
45409;DHT22;31162;51.076;3.784;2022-12-07T08:06:50;5.00;99.90
45409;DHT22;31162;51.076;3.784;2022-12-07T08:09:15;5.00;99.90
45409;DHT22;31162;51.076;3.784;2022-12-07T08:11:41;5.00;99.90
45409;DHT22;31162;51.076;3.784;2022-12-07T08:14:07;5.10;99.90
45409;DHT22;31162;51.076;3.784;2022-12-07T08:16:32;5.00;99.90
45409;DHT22;31162;51.076;3.784;2022-12-07T08:18:58;4.90;99.90
45409;DHT22;31162;51.076;3.784;2022-12-07T08:21:23;4.90;99.90
45409;DHT22;31162;51.076;3.784;2022-12-07T08:23:49;5.10;99.90
45409;DHT22;31162;51.076;3.784;2022-12-07T08:26:16;5.30;99.90
45409;DHT22;31162;51.076;3.784;2022-12-07T08:28:42;5.40;99.90
45409;DHT22;31162;51.076;3.784;2022-12-07T08:31:15;5.60;99.90
45409;DHT22;31162;51.076;3.784;2022-12-07T08:33:41;5.70;99.90
45409;DHT22;31162;51.076;3.784;2022-12-07T08:36:10;5.70;99.90
45409;DHT22;31162;51.076;3.784;2022-12-07T08:38:37;5.70;99.90
45409;DHT22;31162;51.076;3.784;2022-12-07T08:41:04;5.80;99.90
45409;DHT22;31162;51.076;3.784;2022-12-07T08:43:30;5.90;99.90
45409;DHT22;31162;51.076;3.784;2022-12-07T08:46:21;5.90;99.90
45409;DHT22;31162;51.076;3.784;2022-12-07T08:48:55;6.10;99.90
45409;DHT22;31162;51.076;3.784;2022-12-07T08:51:23;6.20;99.90
45409;DHT22;31162;51.076;3.784;2022-12-07T08:53:50;6.20;99.90
45409;DHT22;31162;51.076;3.784;2022-12-07T08:56:16;6.20;99.90
45409;DHT22;31162;51.076;3.784;2022-12-07T08:58:43;6.30;99.90
45409;DHT22;31162;51.076;3.784;2022-12-07T09:01:09;6.40;99.90
45409;DHT22;31162;51.076;3.784;2022-12-07T09:03:35;6.60;99.90
45409;DHT22;31162;51.076;3.784;2022-12-07T09:06:01;6.70;99.90
45409;DHT22;31162;51.076;3.784;2022-12-07T09:08:32;6.70;99.90
45409;DHT22;31162;51.076;3.784;2022-12-07T09:10:58;6.70;99.90
45409;DHT22;31162;51.076;3.784;2022-12-07T09:13:24;6.80;99.90
45409;DHT22;31162;51.076;3.784;2022-12-07T09:15:50;7.10;99.90
45409;DHT22;31162;51.076;3.784;2022-12-07T09:18:16;7.40;99.90
45409;DHT22;31162;51.076;3.784;2022-12-07T09:20:41;7.70;99.90
45409;DHT22;31162;51.076;3.784;2022-12-07T09:23:07;7.80;99.90
45409;DHT22;31162;51.076;3.784;2022-12-07T09:25:34;7.80;99.90
45409;DHT22;31162;51.076;3.784;2022-12-07T09:28:00;7.80;99.90
45409;DHT22;31162;51.076;3.784;2022-12-07T09:30:26;8.00;99.90
45409;DHT22;31162;51.076;3.784;2022-12-07T09:32:54;8.10;99.90
45409;DHT22;31162;51.076;3.784;2022-12-07T09:35:20;8.00;99.90
45409;DHT22;31162;51.076;3.784;2022-12-07T09:37:46;7.80;99.90
45409;DHT22;31162;51.076;3.784;2022-12-07T09:40:12;7.80;99.90
45409;DHT22;31162;51.076;3.784;2022-12-07T09:42:43;7.70;99.90
45409;DHT22;31162;51.076;3.784;2022-12-07T09:45:34;7.70;99.90
45409;DHT22;31162;51.076;3.784;2022-12-07T09:48:02;7.80;99.90
45409;DHT22;31162;51.076;3.784;2022-12-07T09:50:28;7.80;99.90
45409;DHT22;31162;51.076;3.784;2022-12-07T09:53:04;7.70;99.90
45409;DHT22;31162;51.076;3.784;2022-12-07T09:55:30;7.80;99.90
45409;DHT22;31162;51.076;3.784;2022-12-07T09:57:58;7.70;99.90
45409;DHT22;31162;51.076;3.784;2022-12-07T10:00:24;7.60;99.90
45409;DHT22;31162;51.076;3.784;2022-12-07T10:03:01;7.70;99.90
45409;DHT22;31162;51.076;3.784;2022-12-07T10:05:43;7.70;99.90
45409;DHT22;31162;51.076;3.784;2022-12-07T10:08:13;7.70;99.90
45409;DHT22;31162;51.076;3.784;2022-12-07T10:10:38;7.80;99.90
45409;DHT22;31162;51.076;3.784;2022-12-07T10:13:13;7.80;99.90
45409;DHT22;31162;51.076;3.784;2022-12-07T10:18:35;8.10;99.90
45409;DHT22;31162;51.076;3.784;2022-12-07T10:23:35;7.90;99.90
45409;DHT22;31162;51.076;3.784;2022-12-07T10:29:04;7.80;99.90
45409;DHT22;31162;51.076;3.784;2022-12-07T10:31:39;7.80;99.90
45409;DHT22;31162;51.076;3.784;2022-12-07T10:34:22;8.10;99.90
45409;DHT22;31162;51.076;3.784;2022-12-07T10:36:51;8.20;99.90
45409;DHT22;31162;51.076;3.784;2022-12-07T10:39:23;8.40;99.90
45409;DHT22;31162;51.076;3.784;2022-12-07T10:44:23;8.70;99.90
45409;DHT22;31162;51.076;3.784;2022-12-07T10:55:38;9.30;99.90
45409;DHT22;31162;51.076;3.784;2022-12-07T11:04:35;9.50;99.90
45409;DHT22;31162;51.076;3.784;2022-12-07T11:12:07;8.90;99.90
45409;DHT22;31162;51.076;3.784;2022-12-07T11:14:44;8.90;99.90
45409;DHT22;31162;51.076;3.784;2022-12-07T11:17:15;8.80;99.90
45409;DHT22;31162;51.076;3.784;2022-12-07T11:20:14;8.60;99.90
45409;DHT22;31162;51.076;3.784;2022-12-07T11:23:09;8.60;99.90
45409;DHT22;31162;51.076;3.784;2022-12-07T11:28:33;9.30;99.90
45409;DHT22;31162;51.076;3.784;2022-12-07T11:34:36;9.80;99.90
45409;DHT22;31162;51.076;3.784;2022-12-07T11:37:12;9.90;99.90
45409;DHT22;31162;51.076;3.784;2022-12-07T11:39:55;9.80;99.90
45409;DHT22;31162;51.076;3.784;2022-12-07T11:42:29;9.60;99.90
45409;DHT22;31162;51.076;3.784;2022-12-07T11:45:14;9.50;99.90
45409;DHT22;31162;51.076;3.784;2022-12-07T11:50:27;9.30;99.90
45409;DHT22;31162;51.076;3.784;2022-12-07T12:06:23;8.90;99.90
45409;DHT22;31162;51.076;3.784;2022-12-07T12:14:19;9.00;99.90
45409;DHT22;31162;51.076;3.784;2022-12-07T12:17:17;9.10;99.90
45409;DHT22;31162;51.076;3.784;2022-12-07T12:22:43;9.30;99.90
45409;DHT22;31162;51.076;3.784;2022-12-07T12:25:35;9.50;99.90
45409;DHT22;31162;51.076;3.784;2022-12-07T12:28:03;9.50;99.90
45409;DHT22;31162;51.076;3.784;2022-12-07T12:33:31;9.60;99.90
45409;DHT22;31162;51.076;3.784;2022-12-07T12:36:18;9.60;99.90
45409;DHT22;31162;51.076;3.784;2022-12-07T12:46:59;9.40;99.90
45409;DHT22;31162;51.076;3.784;2022-12-07T12:49:34;9.50;99.90
45409;DHT22;31162;51.076;3.784;2022-12-07T12:52:00;9.60;99.90
45409;DHT22;31162;51.076;3.784;2022-12-07T12:54:31;9.90;99.90
45409;DHT22;31162;51.076;3.784;2022-12-07T13:31:42;9.50;99.90
45409;DHT22;31162;51.076;3.784;2022-12-07T13:36:54;9.40;99.90
45409;DHT22;31162;51.076;3.784;2022-12-07T13:39:22;9.40;99.90
45409;DHT22;31162;51.076;3.784;2022-12-07T13:41:53;9.50;99.90
45409;DHT22;31162;51.076;3.784;2022-12-07T13:44:20;9.50;99.90
45409;DHT22;31162;51.076;3.784;2022-12-07T13:49:54;9.60;99.90
45409;DHT22;31162;51.076;3.784;2022-12-07T13:52:28;9.70;99.90
45409;DHT22;31162;51.076;3.784;2022-12-07T13:57:25;9.50;99.90
45409;DHT22;31162;51.076;3.784;2022-12-07T13:59:51;9.50;99.90
45409;DHT22;31162;51.076;3.784;2022-12-07T14:04:45;9.30;99.90
45409;DHT22;31162;51.076;3.784;2022-12-07T14:07:25;9.30;99.90
45409;DHT22;31162;51.076;3.784;2022-12-07T14:10:00;9.20;99.90
45409;DHT22;31162;51.076;3.784;2022-12-07T14:12:27;9.00;99.90
45409;DHT22;31162;51.076;3.784;2022-12-07T14:14:54;8.90;99.90
45409;DHT22;31162;51.076;3.784;2022-12-07T14:17:25;8.70;99.90
45409;DHT22;31162;51.076;3.784;2022-12-07T14:19:56;8.60;99.90
45409;DHT22;31162;51.076;3.784;2022-12-07T14:25:09;8.40;99.90
45409;DHT22;31162;51.076;3.784;2022-12-07T14:27:37;8.30;99.90
45409;DHT22;31162;51.076;3.784;2022-12-07T14:30:04;7.90;99.90
45409;DHT22;31162;51.076;3.784;2022-12-07T14:32:31;7.70;99.90
45409;DHT22;31162;51.076;3.784;2022-12-07T14:35:08;7.70;99.90
45409;DHT22;31162;51.076;3.784;2022-12-07T14:37:36;7.70;99.90
45409;DHT22;31162;51.076;3.784;2022-12-07T14:40:03;7.70;99.90
45409;DHT22;31162;51.076;3.784;2022-12-07T14:42:29;7.90;99.90
45409;DHT22;31162;51.076;3.784;2022-12-07T14:44:56;8.00;99.90
45409;DHT22;31162;51.076;3.784;2022-12-07T14:47:23;8.10;99.90
45409;DHT22;31162;51.076;3.784;2022-12-07T14:49:49;8.10;99.90
45409;DHT22;31162;51.076;3.784;2022-12-07T14:52:25;8.10;99.90
45409;DHT22;31162;51.076;3.784;2022-12-07T14:54:52;8.00;99.90
45409;DHT22;31162;51.076;3.784;2022-12-07T14:57:18;7.90;99.90
45409;DHT22;31162;51.076;3.784;2022-12-07T14:59:43;7.90;99.90
45409;DHT22;31162;51.076;3.784;2022-12-07T15:02:12;7.90;99.90
45409;DHT22;31162;51.076;3.784;2022-12-07T15:04:39;7.90;99.90
45409;DHT22;31162;51.076;3.784;2022-12-07T15:07:08;7.80;99.90
45409;DHT22;31162;51.076;3.784;2022-12-07T15:09:34;7.60;99.90
45409;DHT22;31162;51.076;3.784;2022-12-07T15:12:00;7.50;99.90
45409;DHT22;31162;51.076;3.784;2022-12-07T15:14:25;7.40;99.90
45409;DHT22;31162;51.076;3.784;2022-12-07T15:16:51;7.20;99.90
45409;DHT22;31162;51.076;3.784;2022-12-07T15:19:20;7.20;99.90
45409;DHT22;31162;51.076;3.784;2022-12-07T15:21:48;7.20;99.90
45409;DHT22;31162;51.076;3.784;2022-12-07T15:24:14;7.20;99.90
45409;DHT22;31162;51.076;3.784;2022-12-07T15:26:41;7.10;99.90
45409;DHT22;31162;51.076;3.784;2022-12-07T15:29:07;7.00;99.90
45409;DHT22;31162;51.076;3.784;2022-12-07T15:31:33;6.90;99.90
45409;DHT22;31162;51.076;3.784;2022-12-07T15:33:59;6.90;99.90
45409;DHT22;31162;51.076;3.784;2022-12-07T15:36:27;6.80;99.90
45409;DHT22;31162;51.076;3.784;2022-12-07T15:38:53;6.80;99.90
45409;DHT22;31162;51.076;3.784;2022-12-07T15:41:19;6.80;99.90
45409;DHT22;31162;51.076;3.784;2022-12-07T15:43:46;6.80;99.90
45409;DHT22;31162;51.076;3.784;2022-12-07T15:46:35;6.80;99.90
45409;DHT22;31162;51.076;3.784;2022-12-07T15:49:01;6.80;99.90
45409;DHT22;31162;51.076;3.784;2022-12-07T15:51:27;6.80;99.90
45409;DHT22;31162;51.076;3.784;2022-12-07T15:53:53;6.90;99.90
45409;DHT22;31162;51.076;3.784;2022-12-07T15:56:19;7.00;99.90
45409;DHT22;31162;51.076;3.784;2022-12-07T15:58:45;7.10;99.90
45409;DHT22;31162;51.076;3.784;2022-12-07T16:01:16;7.10;99.90
45409;DHT22;31162;51.076;3.784;2022-12-07T16:03:42;7.10;99.90
45409;DHT22;31162;51.076;3.784;2022-12-07T16:06:09;7.20;99.90
45409;DHT22;31162;51.076;3.784;2022-12-07T16:08:35;7.20;99.90
45409;DHT22;31162;51.076;3.784;2022-12-07T16:11:05;7.20;99.90
45409;DHT22;31162;51.076;3.784;2022-12-07T16:13:31;7.20;99.90
45409;DHT22;31162;51.076;3.784;2022-12-07T16:15:57;7.20;99.90
45409;DHT22;31162;51.076;3.784;2022-12-07T16:18:22;7.10;99.90
45409;DHT22;31162;51.076;3.784;2022-12-07T16:20:48;7.20;99.90
45409;DHT22;31162;51.076;3.784;2022-12-07T16:23:14;7.00;99.90
45409;DHT22;31162;51.076;3.784;2022-12-07T16:25:40;7.10;99.90
45409;DHT22;31162;51.076;3.784;2022-12-07T16:28:06;7.10;99.90
45409;DHT22;31162;51.076;3.784;2022-12-07T16:30:32;7.10;99.90
45409;DHT22;31162;51.076;3.784;2022-12-07T16:32:58;7.30;99.90
45409;DHT22;31162;51.076;3.784;2022-12-07T16:35:23;7.30;99.90
45409;DHT22;31162;51.076;3.784;2022-12-07T16:37:49;7.20;99.90
45409;DHT22;31162;51.076;3.784;2022-12-07T16:40:14;7.30;99.90
45409;DHT22;31162;51.076;3.784;2022-12-07T16:42:40;7.20;99.90
45409;DHT22;31162;51.076;3.784;2022-12-07T16:45:06;7.20;99.90
45409;DHT22;31162;51.076;3.784;2022-12-07T16:47:32;7.30;99.90
45409;DHT22;31162;51.076;3.784;2022-12-07T16:49:57;7.20;99.90
45409;DHT22;31162;51.076;3.784;2022-12-07T16:52:23;7.20;99.90
45409;DHT22;31162;51.076;3.784;2022-12-07T16:54:49;7.20;99.90
45409;DHT22;31162;51.076;3.784;2022-12-07T16:57:16;7.40;99.90
45409;DHT22;31162;51.076;3.784;2022-12-07T16:59:42;7.30;99.90
45409;DHT22;31162;51.076;3.784;2022-12-07T17:02:11;7.20;99.90
45409;DHT22;31162;51.076;3.784;2022-12-07T17:04:37;7.10;99.90
45409;DHT22;31162;51.076;3.784;2022-12-07T17:07:05;7.10;99.90
45409;DHT22;31162;51.076;3.784;2022-12-07T17:09:31;7.00;99.90
45409;DHT22;31162;51.076;3.784;2022-12-07T17:11:57;7.00;99.90
45409;DHT22;31162;51.076;3.784;2022-12-07T17:14:22;7.00;99.90
45409;DHT22;31162;51.076;3.784;2022-12-07T17:17:06;6.90;99.90
45409;DHT22;31162;51.076;3.784;2022-12-07T17:19:32;6.90;99.90
45409;DHT22;31162;51.076;3.784;2022-12-07T17:21:58;7.00;99.90
45409;DHT22;31162;51.076;3.784;2022-12-07T17:24:23;7.20;99.90
45409;DHT22;31162;51.076;3.784;2022-12-07T17:26:49;7.10;99.90
45409;DHT22;31162;51.076;3.784;2022-12-07T17:29:16;7.00;99.90
45409;DHT22;31162;51.076;3.784;2022-12-07T17:31:43;6.90;99.90
45409;DHT22;31162;51.076;3.784;2022-12-07T17:34:14;6.80;99.90
45409;DHT22;31162;51.076;3.784;2022-12-07T17:36:41;6.70;99.90
45409;DHT22;31162;51.076;3.784;2022-12-07T17:39:11;6.60;99.90
45409;DHT22;31162;51.076;3.784;2022-12-07T17:41:38;6.40;99.90
45409;DHT22;31162;51.076;3.784;2022-12-07T17:44:22;6.40;99.90
45409;DHT22;31162;51.076;3.784;2022-12-07T17:46:51;6.20;99.90
45409;DHT22;31162;51.076;3.784;2022-12-07T17:49:20;6.10;99.90
45409;DHT22;31162;51.076;3.784;2022-12-07T17:51:46;6.00;99.90
45409;DHT22;31162;51.076;3.784;2022-12-07T17:54:30;6.00;99.90
45409;DHT22;31162;51.076;3.784;2022-12-07T17:56:56;6.00;99.90
45409;DHT22;31162;51.076;3.784;2022-12-07T17:59:22;5.90;99.90
45409;DHT22;31162;51.076;3.784;2022-12-07T18:01:48;5.90;99.90
45409;DHT22;31162;51.076;3.784;2022-12-07T18:04:13;5.90;99.90
45409;DHT22;31162;51.076;3.784;2022-12-07T18:06:39;5.90;99.90
45409;DHT22;31162;51.076;3.784;2022-12-07T18:09:06;5.80;99.90
45409;DHT22;31162;51.076;3.784;2022-12-07T18:11:32;5.90;99.90
45409;DHT22;31162;51.076;3.784;2022-12-07T18:13:57;5.90;99.90
45409;DHT22;31162;51.076;3.784;2022-12-07T18:16:26;5.90;99.90
45409;DHT22;31162;51.076;3.784;2022-12-07T18:18:52;5.80;99.90
45409;DHT22;31162;51.076;3.784;2022-12-07T18:21:23;5.70;99.90
45409;DHT22;31162;51.076;3.784;2022-12-07T18:23:52;5.70;99.90
45409;DHT22;31162;51.076;3.784;2022-12-07T18:26:18;5.70;99.90
45409;DHT22;31162;51.076;3.784;2022-12-07T18:28:45;5.90;99.90
45409;DHT22;31162;51.076;3.784;2022-12-07T18:31:11;6.00;99.90